createdAt,value
2023-02-01T05:19:31.881Z,100254.44
2023-02-01T05:22:47.581Z,100254.44
2023-02-01T05:26:03.793Z,100257.59
2023-02-01T05:29:19.060Z,100253.94
2023-02-01T05:32:38.760Z,100261.91
2023-02-01T05:35:56.100Z,100271.72
2023-02-01T05:39:19.043Z,100256.25
2023-02-01T05:43:18.320Z,100261.66
2023-02-01T05:46:32.580Z,100251.69
2023-02-01T05:49:47.019Z,100248.16
2023-02-01T06:01:52.166Z,100251.13
2023-02-01T06:06:08.297Z,100264.00
2023-02-01T06:13:42.022Z,100268.03
2023-02-01T06:21:26.318Z,100269.03
2023-02-01T06:24:54.396Z,100278.56
2023-02-01T06:28:35.584Z,100291.44
2023-02-01T06:35:54.847Z,100299.91
2023-02-01T06:39:39.482Z,100306.88
2023-02-01T06:43:27.039Z,100306.97
2023-02-01T06:46:53.186Z,100293.66
2023-02-01T06:50:14.734Z,100294.78
2023-02-01T06:54:01.656Z,100303.88
2023-02-01T07:01:38.413Z,100298.72
2023-02-01T07:09:02.593Z,100298.72
2023-02-01T07:12:32.730Z,100300.59
2023-02-01T07:19:25.954Z,100307.63
2023-02-01T07:23:06.299Z,100301.16
2023-02-01T07:26:28.203Z,100296.44
2023-02-01T07:30:02.767Z,100297.87
2023-02-01T07:33:31.215Z,100307.41
2023-02-01T07:37:06.246Z,100312.19
2023-02-01T07:40:35.320Z,100316.59
2023-02-01T07:43:52.438Z,100326.19
2023-02-01T07:47:30.929Z,100330.59
2023-02-01T07:50:53.524Z,100328.16
2023-02-01T07:54:53.581Z,100327.16
2023-02-01T07:58:28.637Z,100333.03
2023-02-01T08:01:42.855Z,100332.44
2023-02-01T08:05:13.238Z,100327.03
2023-02-01T08:08:28.003Z,100325.16
2023-02-01T08:12:04.442Z,100328.91
2023-02-01T08:20:07.745Z,100322.94
2023-02-01T08:23:23.887Z,100320.38
2023-02-01T08:26:49.778Z,100317.69
2023-02-01T08:30:16.756Z,100331.91
2023-02-01T08:34:06.195Z,100332.16
2023-02-01T08:38:11.297Z,100328.69
2023-02-01T08:41:39.386Z,100335.50
2023-02-01T08:53:51.981Z,100356.59
2023-02-01T08:57:51.117Z,100364.03
2023-02-01T09:01:16.954Z,100362.87
2023-02-01T09:08:42.807Z,100378.06
2023-02-01T09:12:49.503Z,100377.34
2023-02-01T09:16:22.315Z,100363.22
2023-02-01T09:20:03.648Z,100362.66
2023-02-01T09:28:08.300Z,100357.38
2023-02-01T09:31:34.515Z,100350.16
2023-02-01T09:34:54.158Z,100353.72
2023-02-01T09:42:35.717Z,100343.81
2023-02-01T09:46:00.535Z,100341.72
2023-02-01T09:49:40.643Z,100336.00
2023-02-01T09:53:11.645Z,100338.84
2023-02-01T09:56:56.804Z,100346.19
2023-02-01T10:00:27.102Z,100336.09
2023-02-01T10:03:55.356Z,100332.37
2023-02-01T10:07:43.943Z,100349.00
2023-02-01T10:11:19.944Z,100357.00
2023-02-01T10:18:54.352Z,100339.75
2023-02-01T10:23:16.047Z,100332.88
2023-02-01T10:26:36.814Z,100331.47
2023-02-01T10:30:02.951Z,100318.72
2023-02-01T10:37:32.921Z,100289.09
2023-02-01T10:41:08.656Z,100279.66
2023-02-01T10:45:00.274Z,100261.81
2023-02-01T10:48:23.442Z,100268.03
2023-02-01T10:51:59.689Z,100272.31
2023-02-01T10:55:43.317Z,100287.56
2023-02-01T10:59:13.906Z,100273.91
2023-02-01T11:02:55.554Z,100279.69
2023-02-01T11:06:41.697Z,100269.19
2023-02-01T11:14:44.331Z,100253.16
2023-02-01T11:19:02.604Z,100250.50
2023-02-01T11:22:20.176Z,100259.41
2023-02-01T11:30:07.073Z,100238.62
2023-02-01T11:34:39.090Z,100236.87
2023-02-01T11:38:03.729Z,100223.94
2023-02-01T11:42:11.563Z,100215.66
2023-02-01T11:45:52.004Z,100208.53
2023-02-01T11:53:38.543Z,100206.97
2023-02-01T11:57:25.965Z,100206.06
2023-02-01T12:02:00.515Z,100198.97
2023-02-01T12:09:58.987Z,100181.69
2023-02-01T12:13:55.631Z,100183.56
2023-02-01T12:21:40.675Z,100174.25
2023-02-01T12:25:47.108Z,100174.25
2023-02-01T12:30:11.457Z,100168.28
2023-02-01T12:34:08.163Z,100168.56
2023-02-01T12:45:41.782Z,100179.31
2023-02-01T12:49:29.447Z,100188.72
2023-02-01T12:52:47.763Z,100198.50
2023-02-01T12:56:08.119Z,100210.34
2023-02-01T12:59:41.327Z,100215.28
2023-02-01T13:03:39.705Z,100232.41
2023-02-01T13:11:08.903Z,100206.87
2023-02-01T13:26:16.811Z,100174.47
2023-02-01T13:30:27.585Z,100159.88
2023-02-01T13:34:17.231Z,100152.81
2023-02-01T13:38:22.190Z,100141.53
2023-02-01T13:41:53.988Z,100148.72
2023-02-01T13:45:38.518Z,100140.88
2023-02-01T13:49:08.926Z,100123.34
2023-02-01T13:52:59.656Z,100139.13
2023-02-01T13:56:25.403Z,100140.16
2023-02-01T14:00:40.686Z,100156.28
2023-02-01T14:04:03.795Z,100163.69
2023-02-01T14:07:22.052Z,100163.13
2023-02-01T14:10:52.794Z,100160.47
2023-02-01T14:14:46.395Z,100149.84
2023-02-01T14:18:03.482Z,100165.34
2023-02-01T14:21:28.991Z,100151.34
2023-02-01T14:24:57.296Z,100166.41
2023-02-01T14:28:24.700Z,100160.53
2023-02-01T14:32:04.985Z,100142.78
2023-02-01T14:35:40.981Z,100142.25
2023-02-01T14:39:51.657Z,100158.50
2023-02-01T14:43:07.004Z,100177.41
2023-02-01T14:46:35.955Z,100191.56
2023-02-01T14:54:24.220Z,100213.84
2023-02-01T14:57:51.708Z,100213.47
2023-02-01T15:01:20.632Z,100200.88
2023-02-01T15:04:58.749Z,100189.25
2023-02-01T15:08:29.129Z,100199.47
2023-02-01T15:12:07.469Z,100188.38
2023-02-01T15:15:24.162Z,100196.41
2023-02-01T15:18:38.842Z,100172.72
2023-02-01T15:21:54.187Z,100179.34
2023-02-01T15:25:21.037Z,100180.03
2023-02-01T15:28:37.222Z,100182.50
2023-02-01T15:31:52.823Z,100185.84
2023-02-01T15:35:08.157Z,100186.88
2023-02-01T15:38:37.295Z,100175.09
2023-02-01T15:41:52.732Z,100187.03
2023-02-01T15:45:18.956Z,100182.59
2023-02-01T15:48:35.358Z,100167.50
2023-02-01T15:51:49.733Z,100168.88
2023-02-01T15:55:04.864Z,100160.38
2023-02-01T15:58:19.950Z,100171.25
2023-02-01T16:01:40.527Z,100166.75
2023-02-01T16:04:55.848Z,100173.88
2023-02-01T16:08:13.201Z,100174.31
2023-02-01T16:11:31.625Z,100179.69
2023-02-01T16:14:47.249Z,100187.84
2023-02-01T16:18:03.010Z,100188.12
2023-02-01T16:21:18.445Z,100190.38
2023-02-01T16:24:34.290Z,100188.00
2023-02-01T16:27:48.492Z,100200.56
